createdAt,value
2022-08-01T00:00:09.080Z,26.57
2022-08-01T00:02:38.915Z,26.55
2022-08-01T00:05:07.275Z,26.54
2022-08-01T00:07:34.942Z,26.53
2022-08-01T00:10:02.482Z,26.51
2022-08-01T00:12:29.221Z,26.52
2022-08-01T00:14:55.814Z,26.53
2022-08-01T00:17:22.481Z,26.52
2022-08-01T00:19:49.124Z,26.51
2022-08-01T00:22:15.758Z,26.52
2022-08-01T00:24:42.340Z,26.53
2022-08-01T00:27:08.920Z,26.49
2022-08-01T00:30:11.488Z,26.51
2022-08-01T00:32:22.175Z,26.48
2022-08-01T00:34:48.771Z,26.46
2022-08-01T00:37:16.321Z,26.45
2022-08-01T00:39:43.188Z,26.48
2022-08-01T00:42:11.569Z,26.46
2022-08-01T00:44:38.885Z,26.49
2022-08-01T00:47:06.467Z,26.50
2022-08-01T00:49:33.548Z,26.48
2022-08-01T00:52:00.481Z,26.48
2022-08-01T00:54:27.887Z,26.49
2022-08-01T00:56:55.241Z,26.47
2022-08-01T00:59:25.923Z,26.50
2022-08-01T01:01:53.587Z,26.49
2022-08-01T01:04:20.492Z,26.50
2022-08-01T01:07:05.795Z,26.46
2022-08-01T01:09:59.847Z,26.48
2022-08-01T01:12:39.096Z,26.48
2022-08-01T01:15:15.166Z,26.46
2022-08-01T01:18:03.657Z,26.44
2022-08-01T01:20:42.404Z,26.45
2022-08-01T01:23:11.946Z,26.42
2022-08-01T01:25:38.466Z,26.37
2022-08-01T01:28:26.591Z,26.41
2022-08-01T01:30:56.115Z,26.36
2022-08-01T01:33:24.878Z,26.36
2022-08-01T01:35:57.013Z,26.33
2022-08-01T01:38:27.608Z,26.37
2022-08-01T01:40:56.316Z,26.36
2022-08-01T01:43:29.224Z,26.34
2022-08-01T01:46:01.929Z,26.36
2022-08-01T01:48:30.022Z,26.37
2022-08-01T01:50:58.578Z,26.34
2022-08-01T01:53:27.923Z,26.33
2022-08-01T01:55:56.689Z,26.33
2022-08-01T01:58:25.199Z,26.32
2022-08-01T02:00:53.465Z,26.34
2022-08-01T02:03:21.815Z,26.31
2022-08-01T02:05:50.432Z,26.31
2022-08-01T02:08:18.303Z,26.30
2022-08-01T02:11:05.010Z,26.28
2022-08-01T02:13:37.591Z,26.28
2022-08-01T02:16:05.171Z,26.28
2022-08-01T02:18:32.842Z,26.30
2022-08-01T02:21:01.310Z,26.29
2022-08-01T02:23:35.223Z,26.31
2022-08-01T02:26:09.986Z,26.28
2022-08-01T02:29:07.248Z,26.27
2022-08-01T02:31:39.671Z,26.27
2022-08-01T02:34:10.393Z,26.27
2022-08-01T02:36:39.289Z,26.25
2022-08-01T02:39:09.942Z,26.29
2022-08-01T02:41:42.135Z,26.25
2022-08-01T02:44:11.910Z,26.25
2022-08-01T02:46:44.355Z,26.23
2022-08-01T02:49:12.811Z,26.21
2022-08-01T02:51:41.932Z,26.17
2022-08-01T02:54:10.964Z,26.18
2022-08-01T02:56:39.230Z,26.16
2022-08-01T02:59:10.294Z,26.18
2022-08-01T03:01:37.683Z,26.16
2022-08-01T03:04:08.570Z,26.14
2022-08-01T03:06:37.007Z,26.12
2022-08-01T03:09:05.644Z,26.09
2022-08-01T03:11:36.015Z,26.06
2022-08-01T03:14:06.013Z,26.08
2022-08-01T03:16:36.154Z,26.09
2022-08-01T03:19:03.779Z,26.10
2022-08-01T03:21:32.708Z,26.10
2022-08-01T03:24:02.394Z,26.08
2022-08-01T03:26:31.612Z,26.12
2022-08-01T03:29:11.826Z,26.05
2022-08-01T03:31:43.655Z,26.05
2022-08-01T03:34:10.578Z,26.04
2022-08-01T03:36:54.045Z,26.07
2022-08-01T03:39:26.093Z,26.06
2022-08-01T03:41:57.147Z,26.04
2022-08-01T03:44:30.070Z,25.99
2022-08-01T03:47:03.371Z,26.01
2022-08-01T03:49:36.522Z,26.01
2022-08-01T03:52:07.337Z,25.98
2022-08-01T03:54:38.508Z,26.00
2022-08-01T03:57:06.119Z,26.05
2022-08-01T03:59:35.420Z,26.07
2022-08-01T04:02:03.087Z,26.05
2022-08-01T04:04:30.612Z,26.10
2022-08-01T04:06:57.258Z,26.11
2022-08-01T04:09:23.906Z,26.09
2022-08-01T04:11:50.614Z,26.13
2022-08-01T04:14:17.315Z,26.13
2022-08-01T04:16:44.599Z,26.15
2022-08-01T04:19:12.355Z,26.12
2022-08-01T04:21:39.169Z,26.10
2022-08-01T04:24:14.672Z,26.03
2022-08-01T04:26:44.602Z,26.03
2022-08-01T04:29:12.960Z,26.06
2022-08-01T04:31:45.385Z,26.23
2022-08-01T04:34:15.294Z,26.22
2022-08-01T04:36:45.492Z,26.27
2022-08-01T04:39:14.573Z,26.43
2022-08-01T04:41:41.721Z,26.49
2022-08-01T04:44:08.520Z,26.51
2022-08-01T04:46:37.926Z,26.50
2022-08-01T04:49:08.050Z,26.49
2022-08-01T04:51:35.366Z,26.48
2022-08-01T04:54:02.172Z,26.51
2022-08-01T04:56:28.877Z,26.52
2022-08-01T04:59:24.869Z,26.53
2022-08-01T05:01:51.938Z,26.60
2022-08-01T05:04:19.546Z,26.64
2022-08-01T05:06:46.151Z,26.66
2022-08-01T05:09:12.728Z,26.64
2022-08-01T05:11:39.320Z,26.64
2022-08-01T05:14:07.589Z,26.64
2022-08-01T05:16:34.193Z,26.65
2022-08-01T05:19:00.788Z,26.65
2022-08-01T05:21:27.393Z,26.66
2022-08-01T05:23:54.040Z,26.65
2022-08-01T05:26:20.661Z,26.62
2022-08-01T05:28:47.780Z,26.62
2022-08-01T05:31:14.540Z,26.65
2022-08-01T05:33:41.151Z,26.66
2022-08-01T05:36:07.869Z,26.67
2022-08-01T05:38:34.589Z,26.66
2022-08-01T05:41:01.232Z,26.65
2022-08-01T05:43:29.066Z,26.64
2022-08-01T05:45:56.066Z,26.56
2022-08-01T05:48:22.701Z,26.54
2022-08-01T05:50:49.401Z,26.57
2022-08-01T05:53:16.046Z,26.61
2022-08-01T05:55:42.709Z,26.63
2022-08-01T05:58:12.484Z,26.63
2022-08-01T06:00:39.919Z,26.60
2022-08-01T06:03:06.635Z,26.62
2022-08-01T06:05:33.243Z,26.58
2022-08-01T06:07:59.820Z,26.58
2022-08-01T06:10:26.531Z,26.53
2022-08-01T06:12:53.147Z,26.53
2022-08-01T06:15:19.945Z,26.53
2022-08-01T06:17:46.569Z,26.54
2022-08-01T06:20:13.229Z,26.51
2022-08-01T06:22:39.874Z,26.54
2022-08-01T06:25:08.277Z,26.60
2022-08-01T06:27:37.848Z,26.57
2022-08-01T06:30:06.009Z,26.55
2022-08-01T06:32:32.691Z,26.57
2022-08-01T06:34:59.360Z,26.57
2022-08-01T06:37:30.022Z,26.63
2022-08-01T06:39:56.880Z,26.64
2022-08-01T06:42:23.474Z,26.66
2022-08-01T06:44:50.323Z,26.70
2022-08-01T06:47:16.941Z,26.66
2022-08-01T06:49:43.556Z,26.67
2022-08-01T06:52:10.566Z,26.75
2022-08-01T06:54:37.390Z,26.82
2022-08-01T06:57:07.535Z,26.88
2022-08-01T06:59:34.244Z,26.87
2022-08-01T07:02:02.197Z,26.91
2022-08-01T07:04:28.886Z,26.93
2022-08-01T07:06:55.482Z,26.85
2022-08-01T07:09:22.089Z,26.92
2022-08-01T07:11:48.684Z,26.94
2022-08-01T07:14:15.309Z,26.92
2022-08-01T07:16:41.905Z,26.84
2022-08-01T07:19:08.940Z,26.83
2022-08-01T07:21:38.815Z,26.87
2022-08-01T07:24:13.073Z,26.92
2022-08-01T07:26:52.632Z,26.94
2022-08-01T07:29:21.633Z,26.97
2022-08-01T07:31:48.233Z,26.95
2022-08-01T07:34:14.839Z,26.98
2022-08-01T07:36:41.437Z,27.07
2022-08-01T07:39:08.039Z,27.09
2022-08-01T07:41:45.491Z,27.10
2022-08-01T07:44:21.853Z,27.03
2022-08-01T07:46:48.441Z,26.98
2022-08-01T07:49:15.646Z,26.96
2022-08-01T07:51:42.312Z,27.02
2022-08-01T07:54:33.965Z,27.10
2022-08-01T07:57:02.207Z,27.07
2022-08-01T07:59:28.803Z,26.89
2022-08-01T08:01:55.544Z,26.90
2022-08-01T08:04:22.670Z,26.87
2022-08-01T08:06:50.163Z,26.86
2022-08-01T08:09:17.116Z,26.84
2022-08-01T08:11:48.341Z,26.86
2022-08-01T08:14:18.674Z,26.94
2022-08-01T08:16:45.919Z,26.96
2022-08-01T08:19:12.884Z,26.96
2022-08-01T08:21:39.971Z,26.96
2022-08-01T08:24:26.910Z,27.00
2022-08-01T08:27:01.940Z,27.07
2022-08-01T08:29:31.506Z,27.03
2022-08-01T08:31:58.771Z,27.05
2022-08-01T08:34:27.806Z,27.09
2022-08-01T08:36:56.405Z,27.13
2022-08-01T08:39:23.730Z,27.12
2022-08-01T08:41:50.975Z,27.09
2022-08-01T08:44:19.054Z,26.98
2022-08-01T08:46:48.581Z,26.89
2022-08-01T08:49:24.039Z,26.90
2022-08-01T08:51:52.999Z,26.88
2022-08-01T08:54:29.125Z,26.80
2022-08-01T08:57:00.058Z,26.79
2022-08-01T08:59:27.315Z,26.80
2022-08-01T09:01:54.139Z,26.82
2022-08-01T09:04:26.028Z,26.88
2022-08-01T09:06:53.960Z,26.89
2022-08-01T09:09:20.605Z,26.97
2022-08-01T09:11:57.078Z,26.99
2022-08-01T09:14:32.439Z,27.03
2022-08-01T09:17:09.680Z,27.06
2022-08-01T09:19:59.296Z,26.97
2022-08-01T09:22:26.432Z,26.95
2022-08-01T09:25:06.262Z,26.93
2022-08-01T09:27:34.266Z,26.87
2022-08-01T09:30:13.107Z,26.87
2022-08-01T09:32:55.493Z,26.91
2022-08-01T09:35:36.023Z,26.89
2022-08-01T09:38:17.739Z,26.98
2022-08-01T09:41:01.991Z,27.01
2022-08-01T09:43:32.417Z,27.00
2022-08-01T09:46:00.961Z,26.98
2022-08-01T09:48:29.573Z,26.97
2022-08-01T09:51:03.914Z,26.94
2022-08-01T09:53:51.199Z,26.89
2022-08-01T09:56:19.030Z,26.90
2022-08-01T09:59:00.319Z,26.98
2022-08-01T10:01:36.230Z,27.00
2022-08-01T10:04:09.726Z,27.11
2022-08-01T10:06:37.815Z,27.12
2022-08-01T10:09:04.848Z,27.22
2022-08-01T10:11:36.076Z,27.28
2022-08-01T10:14:03.773Z,27.31
2022-08-01T10:16:33.064Z,27.29
2022-08-01T10:19:00.464Z,27.30
2022-08-01T10:21:54.701Z,27.23
2022-08-01T10:24:18.884Z,27.29
2022-08-01T10:26:49.504Z,27.23
2022-08-01T10:29:45.369Z,27.20
2022-08-01T10:32:07.321Z,27.27
2022-08-01T10:34:35.704Z,27.23
2022-08-01T10:37:02.706Z,27.14
2022-08-01T10:39:33.472Z,27.20
2022-08-01T10:42:01.624Z,27.21
2022-08-01T10:44:31.107Z,27.24
2022-08-01T10:47:10.514Z,27.23
2022-08-01T10:49:51.919Z,27.10
2022-08-01T10:52:19.691Z,26.88
2022-08-01T10:54:52.347Z,27.06
2022-08-01T10:57:23.142Z,27.23
2022-08-01T10:59:59.373Z,27.32
2022-08-01T11:02:34.458Z,27.35
2022-08-01T11:05:14.531Z,27.39
2022-08-01T11:07:49.633Z,27.36
2022-08-01T11:10:25.588Z,27.37
2022-08-01T11:12:53.787Z,27.36
2022-08-01T11:15:31.628Z,27.35
2022-08-01T11:18:00.222Z,27.31
2022-08-01T11:20:33.845Z,27.32
2022-08-01T11:23:06.088Z,27.37
2022-08-01T11:25:58.325Z,27.32
2022-08-01T11:28:32.824Z,27.39
2022-08-01T11:31:07.903Z,27.43
2022-08-01T11:33:46.164Z,27.42
2022-08-01T11:36:36.812Z,27.39
2022-08-01T11:39:13.628Z,27.45
2022-08-01T11:41:41.813Z,27.58
2022-08-01T11:44:21.033Z,27.45
2022-08-01T11:47:10.933Z,27.37
2022-08-01T11:49:49.385Z,27.38
2022-08-01T11:52:17.013Z,27.35
2022-08-01T11:54:50.983Z,27.29
2022-08-01T11:57:34.200Z,27.26
2022-08-01T12:00:08.449Z,27.25
2022-08-01T12:02:35.909Z,27.23
2022-08-01T12:05:05.719Z,27.27
2022-08-01T12:07:36.745Z,27.38
2022-08-01T12:10:17.553Z,27.32
2022-08-01T12:12:52.856Z,27.08
2022-08-01T12:15:22.902Z,27.16
2022-08-01T12:17:58.271Z,27.25
2022-08-01T12:20:30.262Z,27.28
2022-08-01T12:22:58.793Z,27.44
2022-08-01T12:25:25.539Z,27.88
2022-08-01T12:27:56.193Z,27.94
2022-08-01T12:30:25.257Z,27.84
2022-08-01T12:32:53.775Z,27.82
2022-08-01T12:35:25.438Z,27.71
2022-08-01T12:37:54.882Z,27.66
2022-08-01T12:40:24.177Z,27.87
2022-08-01T12:42:55.631Z,27.87
2022-08-01T12:45:28.458Z,27.81
2022-08-01T12:47:56.093Z,27.70
2022-08-01T12:50:26.452Z,27.56
2022-08-01T12:52:53.484Z,27.44
2022-08-01T12:55:23.037Z,27.36
2022-08-01T12:58:05.043Z,27.25
2022-08-01T13:00:31.933Z,27.20
2022-08-01T13:03:21.484Z,27.26
2022-08-01T13:05:53.328Z,27.28
2022-08-01T13:08:22.185Z,27.22
2022-08-01T13:10:50.305Z,27.30
2022-08-01T13:13:22.188Z,27.26
2022-08-01T13:16:06.536Z,27.32
2022-08-01T13:18:34.821Z,27.47
2022-08-01T13:21:13.670Z,27.66
2022-08-01T13:24:03.084Z,27.67
2022-08-01T13:26:40.735Z,27.58
2022-08-01T13:29:09.201Z,27.52
2022-08-01T13:31:37.509Z,27.42
2022-08-01T13:34:04.833Z,27.32
2022-08-01T13:36:34.583Z,27.35
2022-08-01T13:39:20.594Z,27.36
2022-08-01T13:41:48.293Z,27.30
2022-08-01T13:44:15.010Z,27.31
2022-08-01T13:46:49.472Z,27.33
2022-08-01T13:49:17.503Z,27.42
2022-08-01T13:51:47.590Z,27.47
2022-08-01T13:54:14.680Z,27.43
2022-08-01T13:56:41.296Z,27.52
2022-08-01T13:59:07.964Z,27.48
2022-08-01T14:01:35.420Z,27.51
2022-08-01T14:04:03.446Z,27.46
2022-08-01T14:06:30.644Z,27.45
2022-08-01T14:08:57.287Z,27.45
2022-08-01T14:11:24.546Z,27.47
2022-08-01T14:13:51.406Z,27.43
2022-08-01T14:16:18.697Z,27.44
2022-08-01T14:18:46.813Z,27.46
2022-08-01T14:21:13.838Z,27.50
2022-08-01T14:23:40.537Z,27.55
2022-08-01T14:26:12.094Z,27.66
2022-08-01T14:28:40.015Z,27.65
2022-08-01T14:31:09.959Z,27.69
2022-08-01T14:33:38.509Z,27.82
2022-08-01T14:36:29.222Z,27.91
2022-08-01T14:38:51.979Z,27.99
2022-08-01T14:41:19.138Z,27.95
2022-08-01T14:43:45.875Z,27.85
2022-08-01T14:46:13.643Z,27.77
2022-08-01T14:48:40.567Z,27.70
2022-08-01T14:51:08.265Z,27.69
2022-08-01T14:53:37.276Z,27.65
2022-08-01T14:56:05.472Z,27.65
2022-08-01T14:58:32.717Z,27.67
2022-08-01T15:00:59.725Z,27.66
2022-08-01T15:03:26.882Z,27.69
2022-08-01T15:05:53.605Z,27.73
2022-08-01T15:08:20.277Z,27.63
2022-08-01T15:10:47.036Z,27.53
2022-08-01T15:13:13.807Z,27.59
2022-08-01T15:15:40.424Z,27.53
2022-08-01T15:18:07.052Z,27.47
2022-08-01T15:20:34.166Z,27.41
2022-08-01T15:23:00.955Z,27.26
2022-08-01T15:25:41.408Z,27.28
2022-08-01T15:28:12.304Z,27.20
2022-08-01T15:30:39.485Z,27.20
2022-08-01T15:33:06.732Z,27.20
2022-08-01T15:35:33.677Z,27.21
2022-08-01T15:38:00.474Z,27.22
2022-08-01T15:40:29.204Z,27.22
2022-08-01T15:42:56.113Z,27.24
2022-08-01T15:45:46.458Z,27.17
2022-08-01T15:48:09.991Z,27.33
2022-08-01T15:50:39.072Z,27.37
2022-08-01T15:53:06.801Z,27.48
2022-08-01T15:55:36.776Z,27.56
2022-08-01T15:58:05.564Z,27.57
2022-08-01T16:00:32.727Z,27.48
2022-08-01T16:03:02.781Z,27.51
2022-08-01T16:05:29.492Z,27.47
2022-08-01T16:07:56.977Z,27.38
2022-08-01T16:10:28.841Z,27.42
2022-08-01T16:12:55.544Z,27.39
2022-08-01T16:15:22.289Z,27.40
2022-08-01T16:17:48.932Z,27.42
2022-08-01T16:20:16.240Z,27.40
2022-08-01T16:22:42.852Z,27.40
2022-08-01T16:25:13.496Z,27.46
2022-08-01T16:27:40.480Z,27.42
2022-08-01T16:30:07.909Z,27.35
2022-08-01T16:32:38.160Z,27.31
2022-08-01T16:35:08.437Z,27.27
2022-08-01T16:37:35.815Z,27.26
2022-08-01T16:40:02.470Z,27.28
2022-08-01T16:42:29.066Z,27.25
2022-08-01T16:44:55.685Z,27.19
2022-08-01T16:47:22.361Z,27.23
2022-08-01T16:49:48.967Z,27.23
2022-08-01T16:52:16.227Z,27.24
2022-08-01T16:54:42.820Z,27.27
2022-08-01T16:57:09.523Z,27.23
2022-08-01T16:59:40.841Z,27.22
2022-08-01T17:02:08.738Z,27.24
2022-08-01T17:04:35.356Z,27.18
2022-08-01T17:07:02.019Z,27.15
2022-08-01T17:09:28.627Z,27.21
2022-08-01T17:11:55.228Z,27.19
2022-08-01T17:14:21.817Z,27.12
2022-08-01T17:16:48.548Z,27.17
2022-08-01T17:19:15.210Z,27.15
2022-08-01T17:21:42.431Z,27.14
2022-08-01T17:24:09.725Z,27.14
2022-08-01T17:26:36.456Z,27.13
2022-08-01T17:29:03.708Z,27.20
2022-08-01T17:31:30.417Z,27.16
2022-08-01T17:33:57.036Z,27.12
2022-08-01T17:36:23.755Z,27.16
2022-08-01T17:38:50.480Z,27.13
2022-08-01T17:41:17.088Z,27.13
2022-08-01T17:43:43.820Z,27.11
2022-08-01T17:46:10.535Z,27.09
2022-08-01T17:48:37.193Z,27.06
2022-08-01T17:51:03.937Z,27.06
2022-08-01T17:53:30.754Z,27.03
2022-08-01T17:55:58.843Z,27.02
2022-08-01T17:58:46.012Z,27.00
2022-08-01T18:01:14.665Z,27.04
2022-08-01T18:03:41.971Z,26.97
2022-08-01T18:06:09.801Z,27.02
2022-08-01T18:08:36.673Z,27.00
2022-08-01T18:11:03.366Z,27.00
2022-08-01T18:13:30.087Z,26.99
2022-08-01T18:15:57.564Z,27.00
2022-08-01T18:18:33.162Z,26.92
2022-08-01T18:21:02.019Z,26.95
2022-08-01T18:23:28.680Z,26.95
2022-08-01T18:25:55.613Z,26.94
2022-08-01T18:28:31.659Z,26.92
2022-08-01T18:31:02.115Z,26.92
2022-08-01T18:33:28.781Z,26.92
2022-08-01T18:36:01.655Z,26.87
2022-08-01T18:38:30.091Z,26.84
2022-08-01T18:40:57.439Z,26.82
2022-08-01T18:43:24.096Z,26.78
2022-08-01T18:45:50.774Z,26.78
2022-08-01T18:48:17.373Z,26.74
2022-08-01T18:50:43.994Z,26.72
2022-08-01T18:53:10.585Z,26.70
2022-08-01T18:55:37.297Z,26.64
2022-08-01T18:58:04.600Z,26.66
2022-08-01T19:00:31.410Z,26.65
2022-08-01T19:02:58.293Z,26.63
2022-08-01T19:05:24.910Z,26.61
2022-08-01T19:08:05.970Z,26.57
2022-08-01T19:10:39.075Z,26.58
2022-08-01T19:13:06.008Z,26.55
2022-08-01T19:15:32.752Z,26.54
2022-08-01T19:17:59.702Z,26.53
2022-08-01T19:20:26.962Z,26.47
2022-08-01T19:22:53.662Z,26.49
2022-08-01T19:25:20.417Z,26.43
2022-08-01T19:27:49.162Z,26.44
2022-08-01T19:30:18.164Z,26.41
2022-08-01T19:32:46.813Z,26.40
2022-08-01T19:35:17.004Z,26.36
2022-08-01T19:37:47.100Z,26.34
2022-08-01T19:40:26.913Z,26.25
2022-08-01T19:42:56.775Z,26.21
2022-08-01T19:45:24.686Z,26.23
2022-08-01T19:47:56.693Z,26.22
2022-08-01T19:50:28.576Z,26.15
2022-08-01T19:53:03.346Z,26.16
2022-08-01T19:55:39.641Z,26.20
2022-08-01T19:58:28.219Z,26.23
2022-08-01T20:00:55.656Z,26.27
2022-08-01T20:03:23.327Z,26.27
2022-08-01T20:05:51.523Z,26.25
2022-08-01T20:08:19.665Z,26.25
2022-08-01T20:10:47.844Z,26.25
2022-08-01T20:13:14.946Z,26.19
2022-08-01T20:15:42.999Z,26.18
2022-08-01T20:18:09.943Z,26.21
2022-08-01T20:20:37.462Z,26.19
2022-08-01T20:23:09.471Z,26.23
2022-08-01T20:25:40.041Z,26.20
2022-08-01T20:28:10.373Z,26.13
2022-08-01T20:30:38.860Z,26.18
2022-08-01T20:33:09.932Z,26.17
2022-08-01T20:35:51.560Z,26.07
2022-08-01T20:38:27.825Z,26.11
2022-08-01T20:40:59.295Z,26.02
2022-08-01T20:43:27.519Z,26.01
2022-08-01T20:45:55.502Z,25.90
2022-08-01T20:48:23.097Z,25.81
2022-08-01T20:51:08.270Z,25.80
2022-08-01T20:53:42.202Z,25.75
2022-08-01T20:56:13.141Z,25.74
2022-08-01T20:59:05.163Z,25.75
2022-08-01T21:01:43.554Z,25.62
2022-08-01T21:04:34.320Z,25.43
2022-08-01T21:07:18.243Z,25.39
2022-08-01T21:10:09.082Z,25.34
2022-08-01T21:12:56.960Z,25.46
2022-08-01T21:15:26.499Z,25.60
2022-08-01T21:18:03.896Z,25.64
2022-08-01T21:20:33.538Z,25.59
2022-08-01T21:23:11.067Z,25.62
2022-08-01T21:25:37.868Z,25.69
2022-08-01T21:28:04.770Z,25.76
2022-08-01T21:30:32.866Z,25.77
2022-08-01T21:33:00.732Z,25.79
2022-08-01T21:35:27.624Z,25.74
2022-08-01T21:37:58.203Z,25.82
2022-08-01T21:40:25.253Z,25.78
2022-08-01T21:42:53.670Z,25.74
2022-08-01T21:45:23.473Z,25.79
2022-08-01T21:47:50.572Z,25.78
2022-08-01T21:50:17.294Z,25.81
2022-08-01T21:52:50.410Z,25.82
2022-08-01T21:55:32.118Z,25.79
2022-08-01T21:58:11.595Z,25.81
2022-08-01T22:00:41.066Z,25.72
2022-08-01T22:03:30.310Z,25.74
2022-08-01T22:06:00.299Z,25.80
2022-08-01T22:08:34.945Z,25.76
2022-08-01T22:11:07.713Z,25.78
2022-08-01T22:13:35.922Z,25.77
2022-08-01T22:16:04.728Z,25.81
2022-08-01T22:18:33.009Z,25.85
2022-08-01T22:21:01.781Z,25.89
2022-08-01T22:23:28.524Z,25.87
2022-08-01T22:25:55.963Z,25.83
2022-08-01T22:28:23.126Z,25.83
2022-08-01T22:30:51.592Z,25.82
2022-08-01T22:33:19.258Z,25.81
2022-08-01T22:35:51.153Z,25.84
2022-08-01T22:38:20.177Z,25.82
2022-08-01T22:40:53.297Z,25.88
2022-08-01T22:43:29.442Z,25.91
2022-08-01T22:46:14.298Z,25.86
2022-08-01T22:48:56.631Z,25.81
2022-08-01T22:51:31.595Z,25.78
2022-08-01T22:54:11.561Z,25.77
2022-08-01T22:56:54.423Z,25.77
2022-08-01T22:59:42.540Z,25.74
2022-08-01T23:02:14.651Z,25.70
2022-08-01T23:04:47.178Z,25.80
2022-08-01T23:07:20.171Z,25.78
2022-08-01T23:09:54.067Z,25.77
2022-08-01T23:12:26.197Z,25.78
2022-08-01T23:14:57.258Z,25.78
2022-08-01T23:17:30.079Z,25.79
2022-08-01T23:20:07.092Z,25.77
2022-08-01T23:22:36.766Z,25.79
2022-08-01T23:25:10.009Z,25.80
2022-08-01T23:27:51.748Z,25.79
2022-08-01T23:30:29.474Z,25.76
2022-08-01T23:32:56.330Z,25.73
2022-08-01T23:35:24.306Z,25.75
2022-08-01T23:37:51.534Z,25.77
2022-08-01T23:40:19.067Z,25.78
2022-08-01T23:42:46.076Z,25.76
2022-08-01T23:45:12.706Z,25.75
2022-08-01T23:47:39.665Z,25.70
2022-08-01T23:50:07.925Z,25.73
2022-08-01T23:52:34.826Z,25.68
2022-08-01T23:55:14.944Z,25.68
2022-08-01T23:57:42.125Z,25.64
